sensor_id;sensor_type;location;lat;lon;timestamp;P1;durP1;ratioP1;P2;durP2;ratioP2
13683;SDS011;6914;53.552;9.908;2023-08-24T00:00:25;13.07;;;6.37;;
13683;SDS011;6914;53.552;9.908;2023-08-24T00:02:52;12.60;;;5.70;;
13683;SDS011;6914;53.552;9.908;2023-08-24T00:05:19;8.27;;;5.37;;
13683;SDS011;6914;53.552;9.908;2023-08-24T00:07:47;10.13;;;5.83;;
13683;SDS011;6914;53.552;9.908;2023-08-24T00:10:14;6.47;;;5.80;;
13683;SDS011;6914;53.552;9.908;2023-08-24T00:12:41;14.50;;;6.20;;
13683;SDS011;6914;53.552;9.908;2023-08-24T00:15:10;12.50;;;7.10;;
13683;SDS011;6914;53.552;9.908;2023-08-24T00:17:37;10.37;;;5.53;;
13683;SDS011;6914;53.552;9.908;2023-08-24T00:20:05;11.40;;;6.77;;
13683;SDS011;6914;53.552;9.908;2023-08-24T00:22:35;15.30;;;6.80;;
13683;SDS011;6914;53.552;9.908;2023-08-24T00:25:03;8.33;;;6.30;;
13683;SDS011;6914;53.552;9.908;2023-08-24T00:27:32;11.33;;;6.07;;
13683;SDS011;6914;53.552;9.908;2023-08-24T00:30:00;12.77;;;6.90;;
13683;SDS011;6914;53.552;9.908;2023-08-24T00:32:29;11.00;;;6.60;;
13683;SDS011;6914;53.552;9.908;2023-08-24T00:34:58;7.30;;;6.60;;
13683;SDS011;6914;53.552;9.908;2023-08-24T00:37:25;13.70;;;6.30;;
13683;SDS011;6914;53.552;9.908;2023-08-24T00:39:53;7.57;;;6.70;;
13683;SDS011;6914;53.552;9.908;2023-08-24T00:42:20;11.50;;;6.77;;
13683;SDS011;6914;53.552;9.908;2023-08-24T00:44:47;12.83;;;7.43;;
13683;SDS011;6914;53.552;9.908;2023-08-24T00:47:15;14.03;;;7.83;;
13683;SDS011;6914;53.552;9.908;2023-08-24T00:49:43;8.33;;;7.00;;
13683;SDS011;6914;53.552;9.908;2023-08-24T00:52:11;8.07;;;6.50;;
13683;SDS011;6914;53.552;9.908;2023-08-24T00:54:38;15.50;;;7.73;;
13683;SDS011;6914;53.552;9.908;2023-08-24T00:57:06;26.07;;;9.33;;
13683;SDS011;6914;53.552;9.908;2023-08-24T00:59:33;24.30;;;8.30;;
13683;SDS011;6914;53.552;9.908;2023-08-24T01:02:01;18.70;;;8.60;;
13683;SDS011;6914;53.552;9.908;2023-08-24T01:04:28;28.87;;;8.80;;
13683;SDS011;6914;53.552;9.908;2023-08-24T01:06:57;13.43;;;7.70;;
13683;SDS011;6914;53.552;9.908;2023-08-24T01:09:24;12.57;;;8.90;;
13683;SDS011;6914;53.552;9.908;2023-08-24T01:11:54;17.37;;;8.50;;
13683;SDS011;6914;53.552;9.908;2023-08-24T01:14:28;15.90;;;8.77;;
13683;SDS011;6914;53.552;9.908;2023-08-24T01:16:58;13.10;;;9.20;;
13683;SDS011;6914;53.552;9.908;2023-08-24T01:19:30;15.00;;;9.70;;
13683;SDS011;6914;53.552;9.908;2023-08-24T01:22:02;14.13;;;9.90;;
13683;SDS011;6914;53.552;9.908;2023-08-24T01:24:38;15.10;;;9.50;;
13683;SDS011;6914;53.552;9.908;2023-08-24T01:27:08;19.03;;;9.47;;
13683;SDS011;6914;53.552;9.908;2023-08-24T01:29:37;12.73;;;9.30;;
13683;SDS011;6914;53.552;9.908;2023-08-24T01:32:05;16.17;;;10.63;;
13683;SDS011;6914;53.552;9.908;2023-08-24T01:34:36;23.43;;;9.47;;
13683;SDS011;6914;53.552;9.908;2023-08-24T01:37:04;20.93;;;8.80;;
13683;SDS011;6914;53.552;9.908;2023-08-24T01:39:31;16.13;;;8.70;;
13683;SDS011;6914;53.552;9.908;2023-08-24T01:42:02;18.00;;;8.50;;
13683;SDS011;6914;53.552;9.908;2023-08-24T01:44:33;14.00;;;10.20;;
13683;SDS011;6914;53.552;9.908;2023-08-24T01:47:02;18.30;;;9.30;;
13683;SDS011;6914;53.552;9.908;2023-08-24T01:49:31;13.40;;;9.90;;
13683;SDS011;6914;53.552;9.908;2023-08-24T01:51:58;12.27;;;9.70;;
13683;SDS011;6914;53.552;9.908;2023-08-24T01:54:26;16.10;;;8.70;;
13683;SDS011;6914;53.552;9.908;2023-08-24T01:56:53;12.03;;;8.60;;
13683;SDS011;6914;53.552;9.908;2023-08-24T01:59:20;21.93;;;8.80;;
13683;SDS011;6914;53.552;9.908;2023-08-24T02:01:48;10.43;;;9.40;;
13683;SDS011;6914;53.552;9.908;2023-08-24T02:04:16;13.30;;;8.00;;
13683;SDS011;6914;53.552;9.908;2023-08-24T02:06:43;10.30;;;7.60;;
13683;SDS011;6914;53.552;9.908;2023-08-24T02:09:10;11.63;;;8.37;;
13683;SDS011;6914;53.552;9.908;2023-08-24T02:11:37;14.40;;;8.90;;
13683;SDS011;6914;53.552;9.908;2023-08-24T02:14:04;19.83;;;8.83;;
13683;SDS011;6914;53.552;9.908;2023-08-24T02:16:31;15.77;;;8.63;;
13683;SDS011;6914;53.552;9.908;2023-08-24T02:19:00;22.83;;;11.37;;
13683;SDS011;6914;53.552;9.908;2023-08-24T02:21:27;17.43;;;10.07;;
13683;SDS011;6914;53.552;9.908;2023-08-24T02:23:54;22.80;;;11.43;;
13683;SDS011;6914;53.552;9.908;2023-08-24T02:26:21;13.80;;;9.67;;
13683;SDS011;6914;53.552;9.908;2023-08-24T02:28:48;19.87;;;9.33;;
13683;SDS011;6914;53.552;9.908;2023-08-24T02:31:15;11.67;;;9.50;;
13683;SDS011;6914;53.552;9.908;2023-08-24T02:33:42;14.17;;;9.90;;
13683;SDS011;6914;53.552;9.908;2023-08-24T02:36:11;12.40;;;8.90;;
13683;SDS011;6914;53.552;9.908;2023-08-24T02:38:38;14.70;;;9.60;;
13683;SDS011;6914;53.552;9.908;2023-08-24T02:41:06;14.90;;;7.90;;
13683;SDS011;6914;53.552;9.908;2023-08-24T02:43:34;13.37;;;8.40;;
13683;SDS011;6914;53.552;9.908;2023-08-24T02:46:01;19.47;;;9.27;;
13683;SDS011;6914;53.552;9.908;2023-08-24T02:48:29;13.80;;;9.87;;
13683;SDS011;6914;53.552;9.908;2023-08-24T02:50:56;11.60;;;9.00;;
13683;SDS011;6914;53.552;9.908;2023-08-24T02:53:25;14.27;;;9.23;;
13683;SDS011;6914;53.552;9.908;2023-08-24T02:55:53;13.63;;;8.10;;
13683;SDS011;6914;53.552;9.908;2023-08-24T02:58:20;14.03;;;9.80;;
13683;SDS011;6914;53.552;9.908;2023-08-24T03:00:47;9.90;;;8.70;;
13683;SDS011;6914;53.552;9.908;2023-08-24T03:03:15;13.60;;;10.53;;
13683;SDS011;6914;53.552;9.908;2023-08-24T03:05:51;18.50;;;9.97;;
13683;SDS011;6914;53.552;9.908;2023-08-24T03:08:18;19.40;;;10.83;;
13683;SDS011;6914;53.552;9.908;2023-08-24T03:10:46;13.40;;;10.90;;
13683;SDS011;6914;53.552;9.908;2023-08-24T03:13:13;22.67;;;9.83;;
13683;SDS011;6914;53.552;9.908;2023-08-24T03:15:41;17.40;;;9.07;;
13683;SDS011;6914;53.552;9.908;2023-08-24T03:18:09;16.40;;;10.23;;
13683;SDS011;6914;53.552;9.908;2023-08-24T03:20:36;16.93;;;9.80;;
13683;SDS011;6914;53.552;9.908;2023-08-24T03:23:03;12.93;;;10.30;;
13683;SDS011;6914;53.552;9.908;2023-08-24T03:25:30;11.53;;;10.50;;
13683;SDS011;6914;53.552;9.908;2023-08-24T03:27:59;14.03;;;10.87;;
13683;SDS011;6914;53.552;9.908;2023-08-24T03:30:26;11.10;;;9.23;;
13683;SDS011;6914;53.552;9.908;2023-08-24T03:32:53;15.60;;;10.27;;
13683;SDS011;6914;53.552;9.908;2023-08-24T03:35:20;16.20;;;10.20;;
13683;SDS011;6914;53.552;9.908;2023-08-24T03:37:47;10.70;;;9.60;;
13683;SDS011;6914;53.552;9.908;2023-08-24T03:40:15;11.90;;;10.10;;
13683;SDS011;6914;53.552;9.908;2023-08-24T03:42:42;15.90;;;10.50;;
13683;SDS011;6914;53.552;9.908;2023-08-24T03:45:10;18.77;;;11.20;;
13683;SDS011;6914;53.552;9.908;2023-08-24T03:47:37;12.43;;;9.73;;
13683;SDS011;6914;53.552;9.908;2023-08-24T03:50:05;13.97;;;9.07;;
13683;SDS011;6914;53.552;9.908;2023-08-24T03:52:32;14.43;;;11.00;;
13683;SDS011;6914;53.552;9.908;2023-08-24T03:54:59;20.90;;;12.33;;
13683;SDS011;6914;53.552;9.908;2023-08-24T03:57:26;15.80;;;10.00;;
13683;SDS011;6914;53.552;9.908;2023-08-24T03:59:54;22.73;;;10.40;;
13683;SDS011;6914;53.552;9.908;2023-08-24T04:02:22;19.27;;;11.30;;
13683;SDS011;6914;53.552;9.908;2023-08-24T04:04:50;18.77;;;12.00;;
13683;SDS011;6914;53.552;9.908;2023-08-24T04:09:47;20.90;;;11.40;;
13683;SDS011;6914;53.552;9.908;2023-08-24T04:12:14;16.63;;;11.00;;
13683;SDS011;6914;53.552;9.908;2023-08-24T04:14:41;15.90;;;12.07;;
13683;SDS011;6914;53.552;9.908;2023-08-24T04:17:08;17.27;;;11.60;;
13683;SDS011;6914;53.552;9.908;2023-08-24T04:19:38;17.87;;;12.20;;
13683;SDS011;6914;53.552;9.908;2023-08-24T04:22:05;18.97;;;12.53;;
13683;SDS011;6914;53.552;9.908;2023-08-24T04:24:33;15.10;;;11.77;;
13683;SDS011;6914;53.552;9.908;2023-08-24T04:27:00;23.63;;;12.90;;
13683;SDS011;6914;53.552;9.908;2023-08-24T04:29:27;14.40;;;11.00;;
13683;SDS011;6914;53.552;9.908;2023-08-24T04:31:54;13.00;;;10.13;;
13683;SDS011;6914;53.552;9.908;2023-08-24T04:34:21;14.93;;;11.17;;
13683;SDS011;6914;53.552;9.908;2023-08-24T04:36:49;20.73;;;12.37;;
13683;SDS011;6914;53.552;9.908;2023-08-24T04:39:17;22.30;;;12.30;;
13683;SDS011;6914;53.552;9.908;2023-08-24T04:41:44;15.20;;;12.33;;
13683;SDS011;6914;53.552;9.908;2023-08-24T04:44:11;22.07;;;10.87;;
13683;SDS011;6914;53.552;9.908;2023-08-24T04:46:39;13.30;;;11.70;;
13683;SDS011;6914;53.552;9.908;2023-08-24T04:49:06;14.13;;;10.63;;
13683;SDS011;6914;53.552;9.908;2023-08-24T04:51:33;15.93;;;11.57;;
13683;SDS011;6914;53.552;9.908;2023-08-24T04:54:01;14.40;;;10.50;;
13683;SDS011;6914;53.552;9.908;2023-08-24T04:56:28;16.93;;;10.00;;
13683;SDS011;6914;53.552;9.908;2023-08-24T04:58:56;14.03;;;11.20;;
13683;SDS011;6914;53.552;9.908;2023-08-24T05:01:25;13.47;;;9.10;;
13683;SDS011;6914;53.552;9.908;2023-08-24T05:03:52;15.70;;;9.73;;
13683;SDS011;6914;53.552;9.908;2023-08-24T05:06:20;17.83;;;9.60;;
13683;SDS011;6914;53.552;9.908;2023-08-24T05:08:47;24.67;;;11.37;;
13683;SDS011;6914;53.552;9.908;2023-08-24T05:11:17;22.50;;;9.80;;
13683;SDS011;6914;53.552;9.908;2023-08-24T05:13:44;14.50;;;9.57;;
13683;SDS011;6914;53.552;9.908;2023-08-24T05:16:11;14.30;;;9.87;;
13683;SDS011;6914;53.552;9.908;2023-08-24T05:18:40;12.67;;;8.50;;
13683;SDS011;6914;53.552;9.908;2023-08-24T05:21:07;14.17;;;8.47;;
13683;SDS011;6914;53.552;9.908;2023-08-24T05:23:34;16.27;;;8.87;;
13683;SDS011;6914;53.552;9.908;2023-08-24T05:26:02;10.63;;;8.60;;
13683;SDS011;6914;53.552;9.908;2023-08-24T05:28:31;16.23;;;9.10;;
13683;SDS011;6914;53.552;9.908;2023-08-24T05:30:58;22.70;;;9.97;;
13683;SDS011;6914;53.552;9.908;2023-08-24T05:33:25;20.33;;;9.40;;
13683;SDS011;6914;53.552;9.908;2023-08-24T05:35:55;14.10;;;9.40;;
13683;SDS011;6914;53.552;9.908;2023-08-24T05:38:23;12.70;;;8.20;;
13683;SDS011;6914;53.552;9.908;2023-08-24T05:40:50;15.07;;;8.83;;
13683;SDS011;6914;53.552;9.908;2023-08-24T05:43:17;18.53;;;8.93;;
13683;SDS011;6914;53.552;9.908;2023-08-24T05:45:47;12.63;;;8.23;;
13683;SDS011;6914;53.552;9.908;2023-08-24T05:48:14;25.10;;;9.00;;
13683;SDS011;6914;53.552;9.908;2023-08-24T05:50:42;18.40;;;7.90;;
13683;SDS011;6914;53.552;9.908;2023-08-24T05:53:09;17.57;;;7.80;;
13683;SDS011;6914;53.552;9.908;2023-08-24T05:55:38;9.53;;;6.60;;
13683;SDS011;6914;53.552;9.908;2023-08-24T05:58:05;9.80;;;7.00;;
13683;SDS011;6914;53.552;9.908;2023-08-24T06:00:32;8.50;;;5.70;;
13683;SDS011;6914;53.552;9.908;2023-08-24T06:03:01;13.23;;;5.07;;
13683;SDS011;6914;53.552;9.908;2023-08-24T06:05:29;10.97;;;5.33;;
13683;SDS011;6914;53.552;9.908;2023-08-24T06:07:56;9.27;;;5.27;;
13683;SDS011;6914;53.552;9.908;2023-08-24T06:10:24;5.40;;;5.00;;
13683;SDS011;6914;53.552;9.908;2023-08-24T06:12:52;5.40;;;5.00;;
13683;SDS011;6914;53.552;9.908;2023-08-24T06:15:19;9.13;;;4.53;;
13683;SDS011;6914;53.552;9.908;2023-08-24T06:17:49;7.93;;;5.47;;
13683;SDS011;6914;53.552;9.908;2023-08-24T06:20:17;10.73;;;5.60;;
13683;SDS011;6914;53.552;9.908;2023-08-24T06:22:45;8.50;;;4.20;;
13683;SDS011;6914;53.552;9.908;2023-08-24T06:25:12;11.63;;;5.30;;
13683;SDS011;6914;53.552;9.908;2023-08-24T06:27:39;7.33;;;5.33;;
13683;SDS011;6914;53.552;9.908;2023-08-24T06:30:07;7.00;;;4.33;;
13683;SDS011;6914;53.552;9.908;2023-08-24T06:32:34;20.27;;;5.57;;
13683;SDS011;6914;53.552;9.908;2023-08-24T06:35:02;11.83;;;4.20;;
13683;SDS011;6914;53.552;9.908;2023-08-24T06:37:31;10.10;;;3.40;;
13683;SDS011;6914;53.552;9.908;2023-08-24T06:39:58;11.27;;;4.80;;
13683;SDS011;6914;53.552;9.908;2023-08-24T06:42:28;5.50;;;4.23;;
13683;SDS011;6914;53.552;9.908;2023-08-24T06:44:55;5.00;;;3.70;;
13683;SDS011;6914;53.552;9.908;2023-08-24T06:47:22;6.53;;;3.67;;
13683;SDS011;6914;53.552;9.908;2023-08-24T06:49:50;7.53;;;3.47;;
13683;SDS011;6914;53.552;9.908;2023-08-24T06:52:17;3.40;;;3.20;;
13683;SDS011;6914;53.552;9.908;2023-08-24T06:54:45;8.53;;;5.30;;
13683;SDS011;6914;53.552;9.908;2023-08-24T06:57:14;6.83;;;4.60;;
13683;SDS011;6914;53.552;9.908;2023-08-24T06:59:41;14.97;;;5.10;;
13683;SDS011;6914;53.552;9.908;2023-08-24T07:02:08;7.27;;;4.10;;
13683;SDS011;6914;53.552;9.908;2023-08-24T07:04:35;15.23;;;4.93;;
13683;SDS011;6914;53.552;9.908;2023-08-24T07:07:05;12.87;;;5.23;;
13683;SDS011;6914;53.552;9.908;2023-08-24T07:09:32;8.87;;;3.90;;
13683;SDS011;6914;53.552;9.908;2023-08-24T07:12:02;8.50;;;4.10;;
13683;SDS011;6914;53.552;9.908;2023-08-24T07:14:32;5.77;;;4.00;;
13683;SDS011;6914;53.552;9.908;2023-08-24T07:16:59;8.83;;;3.43;;
13683;SDS011;6914;53.552;9.908;2023-08-24T07:19:26;8.37;;;4.17;;
13683;SDS011;6914;53.552;9.908;2023-08-24T07:21:53;11.87;;;4.43;;
13683;SDS011;6914;53.552;9.908;2023-08-24T07:24:21;7.63;;;3.70;;
13683;SDS011;6914;53.552;9.908;2023-08-24T07:26:51;6.23;;;3.93;;
13683;SDS011;6914;53.552;9.908;2023-08-24T07:29:19;4.90;;;4.27;;
13683;SDS011;6914;53.552;9.908;2023-08-24T07:31:46;4.23;;;3.87;;
13683;SDS011;6914;53.552;9.908;2023-08-24T07:34:14;9.40;;;4.40;;
13683;SDS011;6914;53.552;9.908;2023-08-24T07:36:41;12.83;;;4.80;;
13683;SDS011;6914;53.552;9.908;2023-08-24T07:39:10;7.50;;;5.17;;
13683;SDS011;6914;53.552;9.908;2023-08-24T07:41:37;8.63;;;5.33;;
13683;SDS011;6914;53.552;9.908;2023-08-24T07:44:05;8.83;;;4.67;;
13683;SDS011;6914;53.552;9.908;2023-08-24T07:46:33;6.97;;;5.17;;
13683;SDS011;6914;53.552;9.908;2023-08-24T07:49:01;8.50;;;4.47;;
13683;SDS011;6914;53.552;9.908;2023-08-24T07:51:28;7.53;;;5.80;;
13683;SDS011;6914;53.552;9.908;2023-08-24T07:53:55;11.70;;;6.80;;
13683;SDS011;6914;53.552;9.908;2023-08-24T07:56:22;13.13;;;6.47;;
13683;SDS011;6914;53.552;9.908;2023-08-24T07:58:49;10.83;;;5.30;;
13683;SDS011;6914;53.552;9.908;2023-08-24T08:01:16;14.13;;;6.83;;
13683;SDS011;6914;53.552;9.908;2023-08-24T08:03:45;14.70;;;6.53;;
13683;SDS011;6914;53.552;9.908;2023-08-24T08:06:12;18.33;;;6.67;;
13683;SDS011;6914;53.552;9.908;2023-08-24T08:08:40;9.33;;;6.47;;
13683;SDS011;6914;53.552;9.908;2023-08-24T08:11:07;19.20;;;7.03;;
13683;SDS011;6914;53.552;9.908;2023-08-24T08:13:34;15.47;;;5.00;;
13683;SDS011;6914;53.552;9.908;2023-08-24T08:16:01;9.03;;;4.80;;
13683;SDS011;6914;53.552;9.908;2023-08-24T08:18:29;19.37;;;6.27;;
13683;SDS011;6914;53.552;9.908;2023-08-24T08:20:57;8.70;;;5.60;;
13683;SDS011;6914;53.552;9.908;2023-08-24T08:23:25;18.70;;;5.50;;
13683;SDS011;6914;53.552;9.908;2023-08-24T08:25:52;12.70;;;5.57;;
13683;SDS011;6914;53.552;9.908;2023-08-24T08:28:19;6.27;;;4.80;;
13683;SDS011;6914;53.552;9.908;2023-08-24T08:30:47;8.63;;;4.80;;
13683;SDS011;6914;53.552;9.908;2023-08-24T08:33:15;5.67;;;4.43;;
13683;SDS011;6914;53.552;9.908;2023-08-24T08:35:43;8.03;;;5.00;;
13683;SDS011;6914;53.552;9.908;2023-08-24T08:38:12;11.27;;;4.40;;
13683;SDS011;6914;53.552;9.908;2023-08-24T08:40:39;5.53;;;4.70;;
13683;SDS011;6914;53.552;9.908;2023-08-24T08:43:07;6.60;;;4.57;;
13683;SDS011;6914;53.552;9.908;2023-08-24T08:45:34;7.53;;;4.20;;
13683;SDS011;6914;53.552;9.908;2023-08-24T08:48:01;3.83;;;3.60;;
13683;SDS011;6914;53.552;9.908;2023-08-24T08:50:30;8.67;;;4.70;;
13683;SDS011;6914;53.552;9.908;2023-08-24T08:52:58;9.90;;;4.40;;
13683;SDS011;6914;53.552;9.908;2023-08-24T08:55:27;8.63;;;3.60;;
13683;SDS011;6914;53.552;9.908;2023-08-24T08:57:55;12.70;;;4.50;;
13683;SDS011;6914;53.552;9.908;2023-08-24T09:00:23;5.83;;;3.60;;
13683;SDS011;6914;53.552;9.908;2023-08-24T09:02:51;11.97;;;5.00;;
13683;SDS011;6914;53.552;9.908;2023-08-24T09:05:20;4.30;;;3.90;;
13683;SDS011;6914;53.552;9.908;2023-08-24T09:07:47;8.00;;;3.23;;
13683;SDS011;6914;53.552;9.908;2023-08-24T09:10:16;11.40;;;3.30;;
13683;SDS011;6914;53.552;9.908;2023-08-24T09:12:44;14.20;;;4.03;;
13683;SDS011;6914;53.552;9.908;2023-08-24T09:15:12;5.27;;;2.73;;
13683;SDS011;6914;53.552;9.908;2023-08-24T09:17:41;3.00;;;2.43;;
13683;SDS011;6914;53.552;9.908;2023-08-24T09:20:10;4.30;;;2.60;;
13683;SDS011;6914;53.552;9.908;2023-08-24T09:22:37;152.23;;;9.97;;
13683;SDS011;6914;53.552;9.908;2023-08-24T09:25:06;123.63;;;8.37;;
13683;SDS011;6914;53.552;9.908;2023-08-24T09:27:33;13.53;;;3.10;;
13683;SDS011;6914;53.552;9.908;2023-08-24T09:30:02;11.43;;;3.70;;
13683;SDS011;6914;53.552;9.908;2023-08-24T09:32:31;9.87;;;3.00;;
13683;SDS011;6914;53.552;9.908;2023-08-24T09:35:01;5.03;;;3.60;;
13683;SDS011;6914;53.552;9.908;2023-08-24T09:37:31;10.20;;;3.10;;
13683;SDS011;6914;53.552;9.908;2023-08-24T09:40:00;29.10;;;3.93;;
13683;SDS011;6914;53.552;9.908;2023-08-24T09:42:34;16.90;;;3.00;;
13683;SDS011;6914;53.552;9.908;2023-08-24T09:45:06;7.20;;;3.10;;
13683;SDS011;6914;53.552;9.908;2023-08-24T09:47:35;3.47;;;2.90;;
13683;SDS011;6914;53.552;9.908;2023-08-24T09:50:02;6.10;;;3.00;;
13683;SDS011;6914;53.552;9.908;2023-08-24T09:52:31;12.10;;;3.47;;
13683;SDS011;6914;53.552;9.908;2023-08-24T09:54:59;4.03;;;2.80;;
13683;SDS011;6914;53.552;9.908;2023-08-24T09:57:29;4.63;;;2.60;;
13683;SDS011;6914;53.552;9.908;2023-08-24T09:59:56;14.33;;;3.07;;
13683;SDS011;6914;53.552;9.908;2023-08-24T10:02:25;5.27;;;2.50;;
13683;SDS011;6914;53.552;9.908;2023-08-24T10:04:55;5.00;;;2.80;;
13683;SDS011;6914;53.552;9.908;2023-08-24T10:07:23;6.50;;;4.03;;
13683;SDS011;6914;53.552;9.908;2023-08-24T10:09:52;5.57;;;2.67;;
13683;SDS011;6914;53.552;9.908;2023-08-24T10:12:20;11.47;;;2.90;;
13683;SDS011;6914;53.552;9.908;2023-08-24T10:14:53;3.07;;;2.70;;
13683;SDS011;6914;53.552;9.908;2023-08-24T10:17:21;6.07;;;2.30;;
13683;SDS011;6914;53.552;9.908;2023-08-24T10:19:51;6.87;;;2.73;;
13683;SDS011;6914;53.552;9.908;2023-08-24T10:22:18;7.03;;;2.57;;
13683;SDS011;6914;53.552;9.908;2023-08-24T10:24:46;3.30;;;2.50;;
13683;SDS011;6914;53.552;9.908;2023-08-24T10:27:14;6.83;;;3.40;;
13683;SDS011;6914;53.552;9.908;2023-08-24T10:29:41;196.43;;;11.33;;
13683;SDS011;6914;53.552;9.908;2023-08-24T10:32:08;22.03;;;2.60;;
13683;SDS011;6914;53.552;9.908;2023-08-24T10:34:36;17.53;;;2.60;;
13683;SDS011;6914;53.552;9.908;2023-08-24T10:37:08;3.90;;;2.00;;
13683;SDS011;6914;53.552;9.908;2023-08-24T10:39:36;11.10;;;2.50;;
13683;SDS011;6914;53.552;9.908;2023-08-24T10:42:04;5.97;;;2.47;;
13683;SDS011;6914;53.552;9.908;2023-08-24T10:44:35;2.13;;;1.90;;
13683;SDS011;6914;53.552;9.908;2023-08-24T10:47:05;6.03;;;1.80;;
13683;SDS011;6914;53.552;9.908;2023-08-24T10:49:32;2.70;;;2.33;;
13683;SDS011;6914;53.552;9.908;2023-08-24T10:54:44;4.30;;;2.50;;
13683;SDS011;6914;53.552;9.908;2023-08-24T10:57:23;2.00;;;1.90;;
13683;SDS011;6914;53.552;9.908;2023-08-24T11:00:00;3.90;;;2.70;;
13683;SDS011;6914;53.552;9.908;2023-08-24T11:02:27;6.47;;;2.10;;
13683;SDS011;6914;53.552;9.908;2023-08-24T11:05:04;19.97;;;2.73;;
13683;SDS011;6914;53.552;9.908;2023-08-24T11:07:31;6.33;;;2.40;;
13683;SDS011;6914;53.552;9.908;2023-08-24T11:10:00;2.93;;;2.10;;
13683;SDS011;6914;53.552;9.908;2023-08-24T11:15:29;689.10;;;34.83;;
13683;SDS011;6914;53.552;9.908;2023-08-24T11:18:10;49.73;;;3.20;;
13683;SDS011;6914;53.552;9.908;2023-08-24T11:20:38;7.10;;;2.77;;
13683;SDS011;6914;53.552;9.908;2023-08-24T11:23:07;4.33;;;2.13;;
13683;SDS011;6914;53.552;9.908;2023-08-24T11:25:36;2.30;;;2.10;;
13683;SDS011;6914;53.552;9.908;2023-08-24T11:28:03;2.00;;;1.73;;
13683;SDS011;6914;53.552;9.908;2023-08-24T11:30:31;4.50;;;2.30;;
13683;SDS011;6914;53.552;9.908;2023-08-24T11:32:58;3.37;;;2.37;;
13683;SDS011;6914;53.552;9.908;2023-08-24T11:35:26;4.20;;;2.27;;
13683;SDS011;6914;53.552;9.908;2023-08-24T11:37:53;2.77;;;2.40;;
13683;SDS011;6914;53.552;9.908;2023-08-24T11:40:20;4.27;;;2.50;;
13683;SDS011;6914;53.552;9.908;2023-08-24T11:42:54;7.87;;;2.77;;
13683;SDS011;6914;53.552;9.908;2023-08-24T11:45:21;6.00;;;2.43;;
13683;SDS011;6914;53.552;9.908;2023-08-24T11:47:49;4.03;;;2.07;;
13683;SDS011;6914;53.552;9.908;2023-08-24T11:50:17;13.70;;;2.10;;
13683;SDS011;6914;53.552;9.908;2023-08-24T11:52:44;3.80;;;2.20;;
13683;SDS011;6914;53.552;9.908;2023-08-24T11:55:11;10.13;;;3.10;;
13683;SDS011;6914;53.552;9.908;2023-08-24T11:57:39;10.03;;;2.40;;
13683;SDS011;6914;53.552;9.908;2023-08-24T12:00:08;5.60;;;2.93;;
13683;SDS011;6914;53.552;9.908;2023-08-24T12:02:38;8.77;;;2.47;;
13683;SDS011;6914;53.552;9.908;2023-08-24T12:05:06;2.40;;;2.20;;
13683;SDS011;6914;53.552;9.908;2023-08-24T12:07:33;6.80;;;2.87;;
13683;SDS011;6914;53.552;9.908;2023-08-24T12:10:00;6.73;;;2.93;;
13683;SDS011;6914;53.552;9.908;2023-08-24T12:12:28;5.60;;;3.10;;
13683;SDS011;6914;53.552;9.908;2023-08-24T12:14:55;9.47;;;3.33;;
13683;SDS011;6914;53.552;9.908;2023-08-24T12:17:24;9.43;;;3.20;;
13683;SDS011;6914;53.552;9.908;2023-08-24T12:19:57;6.83;;;2.87;;
13683;SDS011;6914;53.552;9.908;2023-08-24T12:22:25;5.97;;;3.07;;
13683;SDS011;6914;53.552;9.908;2023-08-24T12:24:53;4.30;;;2.87;;
13683;SDS011;6914;53.552;9.908;2023-08-24T12:27:20;4.53;;;2.77;;
13683;SDS011;6914;53.552;9.908;2023-08-24T12:29:49;20.50;;;3.20;;
13683;SDS011;6914;53.552;9.908;2023-08-24T12:32:17;4.00;;;3.47;;
13683;SDS011;6914;53.552;9.908;2023-08-24T12:34:49;3.97;;;3.10;;
13683;SDS011;6914;53.552;9.908;2023-08-24T12:37:17;4.53;;;3.03;;
13683;SDS011;6914;53.552;9.908;2023-08-24T12:39:45;3.40;;;2.90;;
13683;SDS011;6914;53.552;9.908;2023-08-24T12:42:13;4.43;;;2.70;;
13683;SDS011;6914;53.552;9.908;2023-08-24T12:44:41;4.10;;;3.27;;
13683;SDS011;6914;53.552;9.908;2023-08-24T12:47:08;3.93;;;3.10;;
13683;SDS011;6914;53.552;9.908;2023-08-24T12:49:35;4.73;;;3.40;;
13683;SDS011;6914;53.552;9.908;2023-08-24T12:52:04;14.30;;;2.90;;
13683;SDS011;6914;53.552;9.908;2023-08-24T12:54:31;5.73;;;2.97;;
13683;SDS011;6914;53.552;9.908;2023-08-24T12:56:58;4.67;;;3.00;;
13683;SDS011;6914;53.552;9.908;2023-08-24T12:59:25;4.87;;;3.00;;
13683;SDS011;6914;53.552;9.908;2023-08-24T13:01:52;4.80;;;2.33;;
13683;SDS011;6914;53.552;9.908;2023-08-24T13:04:20;5.63;;;2.33;;
13683;SDS011;6914;53.552;9.908;2023-08-24T13:06:47;5.70;;;3.13;;
13683;SDS011;6914;53.552;9.908;2023-08-24T13:09:15;4.33;;;3.00;;
13683;SDS011;6914;53.552;9.908;2023-08-24T13:11:43;6.63;;;2.73;;
13683;SDS011;6914;53.552;9.908;2023-08-24T13:14:10;3.63;;;3.03;;
13683;SDS011;6914;53.552;9.908;2023-08-24T13:16:37;5.93;;;2.70;;
13683;SDS011;6914;53.552;9.908;2023-08-24T13:19:04;6.90;;;2.67;;
13683;SDS011;6914;53.552;9.908;2023-08-24T13:21:32;4.13;;;3.47;;
13683;SDS011;6914;53.552;9.908;2023-08-24T13:23:59;4.97;;;3.10;;
13683;SDS011;6914;53.552;9.908;2023-08-24T13:26:28;5.47;;;2.67;;
13683;SDS011;6914;53.552;9.908;2023-08-24T13:28:55;6.50;;;2.50;;
13683;SDS011;6914;53.552;9.908;2023-08-24T13:31:22;4.87;;;2.40;;
13683;SDS011;6914;53.552;9.908;2023-08-24T13:33:49;4.27;;;2.53;;
13683;SDS011;6914;53.552;9.908;2023-08-24T13:36:16;3.87;;;2.50;;
13683;SDS011;6914;53.552;9.908;2023-08-24T13:38:45;4.87;;;3.17;;
13683;SDS011;6914;53.552;9.908;2023-08-24T13:41:12;5.63;;;2.87;;
13683;SDS011;6914;53.552;9.908;2023-08-24T13:43:40;7.83;;;3.10;;
13683;SDS011;6914;53.552;9.908;2023-08-24T13:46:08;7.33;;;2.80;;
13683;SDS011;6914;53.552;9.908;2023-08-24T13:48:35;7.47;;;2.17;;
13683;SDS011;6914;53.552;9.908;2023-08-24T13:51:02;5.33;;;2.23;;
13683;SDS011;6914;53.552;9.908;2023-08-24T13:53:29;5.67;;;3.07;;
13683;SDS011;6914;53.552;9.908;2023-08-24T13:55:56;3.00;;;2.30;;
13683;SDS011;6914;53.552;9.908;2023-08-24T13:58:23;6.20;;;2.53;;
13683;SDS011;6914;53.552;9.908;2023-08-24T14:00:55;9.87;;;2.97;;
13683;SDS011;6914;53.552;9.908;2023-08-24T14:03:23;18.57;;;3.87;;
13683;SDS011;6914;53.552;9.908;2023-08-24T14:05:54;8.00;;;3.33;;
13683;SDS011;6914;53.552;9.908;2023-08-24T14:08:21;3.27;;;2.97;;
13683;SDS011;6914;53.552;9.908;2023-08-24T14:10:48;4.37;;;2.70;;
13683;SDS011;6914;53.552;9.908;2023-08-24T14:13:16;4.50;;;1.93;;
13683;SDS011;6914;53.552;9.908;2023-08-24T14:15:43;4.43;;;2.20;;
13683;SDS011;6914;53.552;9.908;2023-08-24T14:18:12;6.57;;;2.60;;
13683;SDS011;6914;53.552;9.908;2023-08-24T14:20:39;3.57;;;2.40;;
13683;SDS011;6914;53.552;9.908;2023-08-24T14:23:06;3.33;;;2.63;;
13683;SDS011;6914;53.552;9.908;2023-08-24T14:25:33;6.30;;;3.13;;
13683;SDS011;6914;53.552;9.908;2023-08-24T14:28:00;14.27;;;3.33;;
13683;SDS011;6914;53.552;9.908;2023-08-24T14:30:27;5.67;;;2.70;;
13683;SDS011;6914;53.552;9.908;2023-08-24T14:32:54;2.27;;;2.10;;
13683;SDS011;6914;53.552;9.908;2023-08-24T14:35:23;10.43;;;3.00;;
13683;SDS011;6914;53.552;9.908;2023-08-24T14:37:50;3.40;;;3.07;;
13683;SDS011;6914;53.552;9.908;2023-08-24T14:40:17;2.90;;;2.70;;
13683;SDS011;6914;53.552;9.908;2023-08-24T14:42:46;12.33;;;2.70;;
13683;SDS011;6914;53.552;9.908;2023-08-24T14:45:14;6.90;;;3.10;;
13683;SDS011;6914;53.552;9.908;2023-08-24T14:47:41;12.33;;;3.20;;
13683;SDS011;6914;53.552;9.908;2023-08-24T14:50:09;7.70;;;2.57;;
13683;SDS011;6914;53.552;9.908;2023-08-24T14:52:37;4.50;;;2.50;;
13683;SDS011;6914;53.552;9.908;2023-08-24T14:55:05;7.83;;;2.97;;
13683;SDS011;6914;53.552;9.908;2023-08-24T14:57:33;4.47;;;2.97;;
13683;SDS011;6914;53.552;9.908;2023-08-24T15:00:00;4.00;;;2.30;;
13683;SDS011;6914;53.552;9.908;2023-08-24T15:02:30;4.40;;;3.57;;
13683;SDS011;6914;53.552;9.908;2023-08-24T15:04:58;9.23;;;2.60;;